sensor_id;sensor_type;location;lat;lon;timestamp;temperature;humidity
29577;DHT22;16509;53.862;10.672;2023-09-19T00:00:57;17.00;99.90
29577;DHT22;16509;53.862;10.672;2023-09-19T00:03:23;17.00;99.90
29577;DHT22;16509;53.862;10.672;2023-09-19T00:05:50;17.00;99.90
29577;DHT22;16509;53.862;10.672;2023-09-19T00:08:16;17.00;99.90
29577;DHT22;16509;53.862;10.672;2023-09-19T00:10:43;17.00;99.90
29577;DHT22;16509;53.862;10.672;2023-09-19T00:13:09;17.00;99.90
29577;DHT22;16509;53.862;10.672;2023-09-19T00:15:45;17.00;99.90
29577;DHT22;16509;53.862;10.672;2023-09-19T00:18:13;17.00;99.90
29577;DHT22;16509;53.862;10.672;2023-09-19T00:20:41;17.00;99.90
29577;DHT22;16509;53.862;10.672;2023-09-19T00:23:07;17.00;99.90
29577;DHT22;16509;53.862;10.672;2023-09-19T00:25:37;16.90;99.90
29577;DHT22;16509;53.862;10.672;2023-09-19T00:28:06;16.90;99.90
29577;DHT22;16509;53.862;10.672;2023-09-19T00:30:35;16.90;99.90
29577;DHT22;16509;53.862;10.672;2023-09-19T00:33:02;16.90;99.90
29577;DHT22;16509;53.862;10.672;2023-09-19T00:35:31;16.90;99.90
29577;DHT22;16509;53.862;10.672;2023-09-19T00:37:56;16.90;99.90
29577;DHT22;16509;53.862;10.672;2023-09-19T00:40:22;16.90;99.90
29577;DHT22;16509;53.862;10.672;2023-09-19T00:42:48;16.80;99.90
29577;DHT22;16509;53.862;10.672;2023-09-19T00:45:16;17.50;99.90
29577;DHT22;16509;53.862;10.672;2023-09-19T00:47:45;16.80;99.90
29577;DHT22;16509;53.862;10.672;2023-09-19T00:50:12;16.70;99.90
29577;DHT22;16509;53.862;10.672;2023-09-19T00:52:40;16.80;99.90
29577;DHT22;16509;53.862;10.672;2023-09-19T00:55:08;16.70;99.90
29577;DHT22;16509;53.862;10.672;2023-09-19T00:57:35;16.70;99.90
29577;DHT22;16509;53.862;10.672;2023-09-19T01:00:03;16.70;99.90
29577;DHT22;16509;53.862;10.672;2023-09-19T01:02:34;16.70;99.90
29577;DHT22;16509;53.862;10.672;2023-09-19T01:05:00;16.70;99.90
29577;DHT22;16509;53.862;10.672;2023-09-19T01:07:27;16.70;99.90
29577;DHT22;16509;53.862;10.672;2023-09-19T01:09:56;16.70;99.90
29577;DHT22;16509;53.862;10.672;2023-09-19T01:12:33;16.70;99.90
29577;DHT22;16509;53.862;10.672;2023-09-19T01:15:27;16.70;99.90
29577;DHT22;16509;53.862;10.672;2023-09-19T01:18:16;16.70;99.90
29577;DHT22;16509;53.862;10.672;2023-09-19T01:21:08;16.70;99.90
29577;DHT22;16509;53.862;10.672;2023-09-19T01:24:04;16.60;99.90
29577;DHT22;16509;53.862;10.672;2023-09-19T01:32:05;16.50;99.90
29577;DHT22;16509;53.862;10.672;2023-09-19T01:34:51;16.60;99.90
29577;DHT22;16509;53.862;10.672;2023-09-19T01:37:19;16.70;99.90
29577;DHT22;16509;53.862;10.672;2023-09-19T01:39:51;16.70;99.90
29577;DHT22;16509;53.862;10.672;2023-09-19T01:43:12;16.70;99.90
29577;DHT22;16509;53.862;10.672;2023-09-19T01:45:22;16.70;99.90
29577;DHT22;16509;53.862;10.672;2023-09-19T01:47:54;16.70;99.90
29577;DHT22;16509;53.862;10.672;2023-09-19T01:51:32;16.70;99.90
29577;DHT22;16509;53.862;10.672;2023-09-19T01:53:26;16.60;99.90
29577;DHT22;16509;53.862;10.672;2023-09-19T01:55:57;16.60;99.90
29577;DHT22;16509;53.862;10.672;2023-09-19T01:58:45;16.60;99.90
29577;DHT22;16509;53.862;10.672;2023-09-19T02:01:16;16.60;99.90
29577;DHT22;16509;53.862;10.672;2023-09-19T02:03:44;16.50;99.90
29577;DHT22;16509;53.862;10.672;2023-09-19T02:06:18;16.70;99.90
29577;DHT22;16509;53.862;10.672;2023-09-19T02:08:45;16.60;99.90
29577;DHT22;16509;53.862;10.672;2023-09-19T02:11:11;16.50;99.90
29577;DHT22;16509;53.862;10.672;2023-09-19T02:13:37;16.50;99.90
29577;DHT22;16509;53.862;10.672;2023-09-19T02:16:03;16.50;99.90
29577;DHT22;16509;53.862;10.672;2023-09-19T02:18:30;16.50;99.90
29577;DHT22;16509;53.862;10.672;2023-09-19T02:20:56;16.50;99.90
29577;DHT22;16509;53.862;10.672;2023-09-19T02:23:24;16.40;99.90
29577;DHT22;16509;53.862;10.672;2023-09-19T02:25:54;16.40;99.90
29577;DHT22;16509;53.862;10.672;2023-09-19T02:28:20;16.50;99.90
29577;DHT22;16509;53.862;10.672;2023-09-19T02:30:49;16.40;99.90
29577;DHT22;16509;53.862;10.672;2023-09-19T02:33:15;16.40;99.90
29577;DHT22;16509;53.862;10.672;2023-09-19T02:35:42;16.50;99.90
29577;DHT22;16509;53.862;10.672;2023-09-19T02:38:08;16.30;99.90
29577;DHT22;16509;53.862;10.672;2023-09-19T02:40:36;16.30;99.90
29577;DHT22;16509;53.862;10.672;2023-09-19T02:43:02;16.30;99.90
29577;DHT22;16509;53.862;10.672;2023-09-19T02:45:28;16.30;99.90
29577;DHT22;16509;53.862;10.672;2023-09-19T02:47:55;16.30;99.90
29577;DHT22;16509;53.862;10.672;2023-09-19T02:50:21;16.30;99.90
29577;DHT22;16509;53.862;10.672;2023-09-19T02:52:47;16.20;99.90
29577;DHT22;16509;53.862;10.672;2023-09-19T02:55:17;16.20;99.90
29577;DHT22;16509;53.862;10.672;2023-09-19T02:57:48;16.10;99.90
29577;DHT22;16509;53.862;10.672;2023-09-19T03:00:14;16.10;99.90
29577;DHT22;16509;53.862;10.672;2023-09-19T03:02:40;16.20;99.90
29577;DHT22;16509;53.862;10.672;2023-09-19T03:05:07;16.10;99.90
29577;DHT22;16509;53.862;10.672;2023-09-19T03:07:33;16.10;99.90
29577;DHT22;16509;53.862;10.672;2023-09-19T03:09:59;16.10;99.90
29577;DHT22;16509;53.862;10.672;2023-09-19T03:12:25;16.10;99.90
29577;DHT22;16509;53.862;10.672;2023-09-19T03:14:51;16.10;99.90
29577;DHT22;16509;53.862;10.672;2023-09-19T03:17:17;16.10;99.90
29577;DHT22;16509;53.862;10.672;2023-09-19T03:19:45;16.10;99.90
29577;DHT22;16509;53.862;10.672;2023-09-19T03:22:10;16.10;99.90
29577;DHT22;16509;53.862;10.672;2023-09-19T03:24:36;16.10;99.90
29577;DHT22;16509;53.862;10.672;2023-09-19T03:27:03;16.00;99.90
29577;DHT22;16509;53.862;10.672;2023-09-19T03:29:29;16.00;99.90
29577;DHT22;16509;53.862;10.672;2023-09-19T03:31:54;16.00;99.90
29577;DHT22;16509;53.862;10.672;2023-09-19T03:34:20;16.00;99.90
29577;DHT22;16509;53.862;10.672;2023-09-19T03:36:46;16.00;99.90
29577;DHT22;16509;53.862;10.672;2023-09-19T03:39:12;16.00;99.90
29577;DHT22;16509;53.862;10.672;2023-09-19T03:41:37;16.00;99.90
29577;DHT22;16509;53.862;10.672;2023-09-19T03:44:04;16.00;99.90
29577;DHT22;16509;53.862;10.672;2023-09-19T03:46:29;16.00;99.90
29577;DHT22;16509;53.862;10.672;2023-09-19T03:48:55;16.10;99.90
29577;DHT22;16509;53.862;10.672;2023-09-19T03:51:21;16.00;99.90
29577;DHT22;16509;53.862;10.672;2023-09-19T03:53:47;16.10;99.90
29577;DHT22;16509;53.862;10.672;2023-09-19T03:56:14;17.80;99.90
29577;DHT22;16509;53.862;10.672;2023-09-19T03:58:40;17.50;99.90
29577;DHT22;16509;53.862;10.672;2023-09-19T04:01:06;17.20;99.90
29577;DHT22;16509;53.862;10.672;2023-09-19T04:03:34;16.10;99.90
29577;DHT22;16509;53.862;10.672;2023-09-19T04:06:14;16.20;99.90
29577;DHT22;16509;53.862;10.672;2023-09-19T04:08:39;16.20;99.90
29577;DHT22;16509;53.862;10.672;2023-09-19T04:11:05;16.20;99.90
29577;DHT22;16509;53.862;10.672;2023-09-19T04:13:31;16.30;99.90
29577;DHT22;16509;53.862;10.672;2023-09-19T04:15:56;16.20;99.90
29577;DHT22;16509;53.862;10.672;2023-09-19T04:18:22;16.30;99.90
29577;DHT22;16509;53.862;10.672;2023-09-19T04:20:52;16.20;99.90
29577;DHT22;16509;53.862;10.672;2023-09-19T04:23:18;16.20;99.90
29577;DHT22;16509;53.862;10.672;2023-09-19T04:25:46;16.20;99.90
29577;DHT22;16509;53.862;10.672;2023-09-19T04:28:11;16.10;99.90
29577;DHT22;16509;53.862;10.672;2023-09-19T04:30:37;16.20;99.90
29577;DHT22;16509;53.862;10.672;2023-09-19T04:33:05;16.10;99.90
29577;DHT22;16509;53.862;10.672;2023-09-19T04:35:31;16.10;99.90
29577;DHT22;16509;53.862;10.672;2023-09-19T04:37:57;16.10;99.90
29577;DHT22;16509;53.862;10.672;2023-09-19T04:40:23;16.10;99.90
29577;DHT22;16509;53.862;10.672;2023-09-19T04:42:58;16.10;99.90
29577;DHT22;16509;53.862;10.672;2023-09-19T04:45:25;16.00;99.90
29577;DHT22;16509;53.862;10.672;2023-09-19T04:47:55;16.00;99.90
29577;DHT22;16509;53.862;10.672;2023-09-19T04:50:21;15.90;99.90
29577;DHT22;16509;53.862;10.672;2023-09-19T04:52:51;15.90;99.90
29577;DHT22;16509;53.862;10.672;2023-09-19T04:55:18;15.90;99.90
29577;DHT22;16509;53.862;10.672;2023-09-19T04:57:48;15.80;99.90
29577;DHT22;16509;53.862;10.672;2023-09-19T05:00:15;15.80;99.90
29577;DHT22;16509;53.862;10.672;2023-09-19T05:02:42;15.80;99.90
29577;DHT22;16509;53.862;10.672;2023-09-19T05:05:08;15.70;99.90
29577;DHT22;16509;53.862;10.672;2023-09-19T05:07:36;15.70;99.90
29577;DHT22;16509;53.862;10.672;2023-09-19T05:10:02;16.20;99.90
29577;DHT22;16509;53.862;10.672;2023-09-19T05:12:34;15.80;99.90
29577;DHT22;16509;53.862;10.672;2023-09-19T05:15:01;15.80;99.90
29577;DHT22;16509;53.862;10.672;2023-09-19T05:17:27;15.80;99.90
29577;DHT22;16509;53.862;10.672;2023-09-19T05:19:52;15.60;99.90
29577;DHT22;16509;53.862;10.672;2023-09-19T05:22:18;15.70;99.90
29577;DHT22;16509;53.862;10.672;2023-09-19T05:24:44;15.70;99.90
29577;DHT22;16509;53.862;10.672;2023-09-19T05:27:12;15.60;99.90
29577;DHT22;16509;53.862;10.672;2023-09-19T05:29:38;16.00;99.90
29577;DHT22;16509;53.862;10.672;2023-09-19T05:32:03;15.60;99.90
29577;DHT22;16509;53.862;10.672;2023-09-19T05:34:31;15.50;99.90
29577;DHT22;16509;53.862;10.672;2023-09-19T05:36:56;15.40;99.90
29577;DHT22;16509;53.862;10.672;2023-09-19T05:39:22;15.40;99.90
29577;DHT22;16509;53.862;10.672;2023-09-19T05:41:48;15.40;99.90
29577;DHT22;16509;53.862;10.672;2023-09-19T05:44:13;15.40;99.90
29577;DHT22;16509;53.862;10.672;2023-09-19T05:46:42;15.30;99.90
29577;DHT22;16509;53.862;10.672;2023-09-19T05:49:07;15.30;99.90
29577;DHT22;16509;53.862;10.672;2023-09-19T05:51:33;15.20;99.90
29577;DHT22;16509;53.862;10.672;2023-09-19T05:54:00;15.20;99.90
29577;DHT22;16509;53.862;10.672;2023-09-19T05:56:26;15.20;99.90
29577;DHT22;16509;53.862;10.672;2023-09-19T05:58:52;15.20;99.90
29577;DHT22;16509;53.862;10.672;2023-09-19T06:01:18;15.10;99.90
29577;DHT22;16509;53.862;10.672;2023-09-19T06:03:44;15.10;99.90
29577;DHT22;16509;53.862;10.672;2023-09-19T06:06:09;15.20;99.90
29577;DHT22;16509;53.862;10.672;2023-09-19T06:08:35;15.10;99.90
29577;DHT22;16509;53.862;10.672;2023-09-19T06:11:01;15.10;99.90
29577;DHT22;16509;53.862;10.672;2023-09-19T06:13:29;15.10;99.90
29577;DHT22;16509;53.862;10.672;2023-09-19T06:15:55;15.10;99.90
29577;DHT22;16509;53.862;10.672;2023-09-19T06:18:23;15.10;99.90
29577;DHT22;16509;53.862;10.672;2023-09-19T06:20:51;15.10;99.90
29577;DHT22;16509;53.862;10.672;2023-09-19T06:23:17;15.10;99.90
29577;DHT22;16509;53.862;10.672;2023-09-19T06:25:45;15.20;99.90
29577;DHT22;16509;53.862;10.672;2023-09-19T06:28:10;15.20;99.90
29577;DHT22;16509;53.862;10.672;2023-09-19T06:30:39;15.20;99.90
29577;DHT22;16509;53.862;10.672;2023-09-19T06:33:05;15.30;99.90
29577;DHT22;16509;53.862;10.672;2023-09-19T06:35:33;15.30;99.90
29577;DHT22;16509;53.862;10.672;2023-09-19T06:37:59;15.40;99.90
29577;DHT22;16509;53.862;10.672;2023-09-19T06:40:24;15.50;99.90
29577;DHT22;16509;53.862;10.672;2023-09-19T06:42:51;15.60;99.90
29577;DHT22;16509;53.862;10.672;2023-09-19T06:45:18;15.70;99.90
29577;DHT22;16509;53.862;10.672;2023-09-19T06:47:50;15.70;99.90
29577;DHT22;16509;53.862;10.672;2023-09-19T06:50:17;15.70;99.90
29577;DHT22;16509;53.862;10.672;2023-09-19T06:52:45;15.80;99.90
29577;DHT22;16509;53.862;10.672;2023-09-19T06:55:12;15.80;99.90
29577;DHT22;16509;53.862;10.672;2023-09-19T06:57:39;15.90;99.90
29577;DHT22;16509;53.862;10.672;2023-09-19T07:00:06;15.90;99.90
29577;DHT22;16509;53.862;10.672;2023-09-19T07:02:59;15.90;99.90
29577;DHT22;16509;53.862;10.672;2023-09-19T07:05:27;15.90;99.90
29577;DHT22;16509;53.862;10.672;2023-09-19T07:07:53;16.00;99.90
29577;DHT22;16509;53.862;10.672;2023-09-19T07:10:20;16.00;99.90
29577;DHT22;16509;53.862;10.672;2023-09-19T07:12:56;16.10;99.90
29577;DHT22;16509;53.862;10.672;2023-09-19T07:15:23;16.10;99.90
29577;DHT22;16509;53.862;10.672;2023-09-19T07:17:53;16.20;99.90
29577;DHT22;16509;53.862;10.672;2023-09-19T07:20:23;16.20;99.90
29577;DHT22;16509;53.862;10.672;2023-09-19T07:22:51;16.20;99.90
29577;DHT22;16509;53.862;10.672;2023-09-19T07:25:17;16.20;99.90
29577;DHT22;16509;53.862;10.672;2023-09-19T07:27:42;16.20;99.90
29577;DHT22;16509;53.862;10.672;2023-09-19T07:30:09;16.30;99.90
29577;DHT22;16509;53.862;10.672;2023-09-19T07:32:35;16.30;99.90
29577;DHT22;16509;53.862;10.672;2023-09-19T07:35:02;16.30;99.90
29577;DHT22;16509;53.862;10.672;2023-09-19T07:37:29;16.30;99.90
29577;DHT22;16509;53.862;10.672;2023-09-19T07:39:56;16.40;99.90
29577;DHT22;16509;53.862;10.672;2023-09-19T07:42:22;16.40;99.90
29577;DHT22;16509;53.862;10.672;2023-09-19T07:44:47;16.30;99.90
29577;DHT22;16509;53.862;10.672;2023-09-19T07:47:16;16.40;99.90
29577;DHT22;16509;53.862;10.672;2023-09-19T07:49:42;16.40;99.90
29577;DHT22;16509;53.862;10.672;2023-09-19T07:52:08;16.40;99.90
29577;DHT22;16509;53.862;10.672;2023-09-19T07:54:35;16.60;99.90
29577;DHT22;16509;53.862;10.672;2023-09-19T07:57:04;16.70;99.90
29577;DHT22;16509;53.862;10.672;2023-09-19T07:59:30;16.80;99.90
29577;DHT22;16509;53.862;10.672;2023-09-19T08:01:55;16.80;99.90
29577;DHT22;16509;53.862;10.672;2023-09-19T08:04:21;16.80;99.90
29577;DHT22;16509;53.862;10.672;2023-09-19T08:06:46;16.70;99.90
29577;DHT22;16509;53.862;10.672;2023-09-19T08:09:12;16.80;99.90
29577;DHT22;16509;53.862;10.672;2023-09-19T08:11:41;16.90;99.90
29577;DHT22;16509;53.862;10.672;2023-09-19T08:14:07;16.80;99.90
29577;DHT22;16509;53.862;10.672;2023-09-19T08:16:34;16.90;99.90
29577;DHT22;16509;53.862;10.672;2023-09-19T08:18:59;16.90;99.90
29577;DHT22;16509;53.862;10.672;2023-09-19T08:21:25;16.90;99.90
29577;DHT22;16509;53.862;10.672;2023-09-19T08:23:53;17.80;99.90
29577;DHT22;16509;53.862;10.672;2023-09-19T08:26:18;16.80;99.90
29577;DHT22;16509;53.862;10.672;2023-09-19T08:28:45;16.80;99.90
29577;DHT22;16509;53.862;10.672;2023-09-19T08:31:10;16.70;99.90
29577;DHT22;16509;53.862;10.672;2023-09-19T08:33:36;16.80;99.90
29577;DHT22;16509;53.862;10.672;2023-09-19T08:36:06;16.80;99.90
29577;DHT22;16509;53.862;10.672;2023-09-19T08:38:34;16.80;99.90
29577;DHT22;16509;53.862;10.672;2023-09-19T08:41:00;16.90;99.90
29577;DHT22;16509;53.862;10.672;2023-09-19T08:43:26;16.90;99.90
29577;DHT22;16509;53.862;10.672;2023-09-19T08:46:03;16.90;99.90
29577;DHT22;16509;53.862;10.672;2023-09-19T08:48:34;16.90;99.90
29577;DHT22;16509;53.862;10.672;2023-09-19T08:51:12;16.90;99.90
29577;DHT22;16509;53.862;10.672;2023-09-19T08:53:58;16.90;99.90
29577;DHT22;16509;53.862;10.672;2023-09-19T08:56:29;16.90;99.90
29577;DHT22;16509;53.862;10.672;2023-09-19T08:59:04;16.90;99.90
29577;DHT22;16509;53.862;10.672;2023-09-19T09:01:33;16.90;99.90
29577;DHT22;16509;53.862;10.672;2023-09-19T09:03:59;16.90;99.90
29577;DHT22;16509;53.862;10.672;2023-09-19T09:06:26;16.90;99.90
29577;DHT22;16509;53.862;10.672;2023-09-19T09:08:58;16.90;99.90
29577;DHT22;16509;53.862;10.672;2023-09-19T09:11:23;16.80;99.90
29577;DHT22;16509;53.862;10.672;2023-09-19T09:13:50;16.90;99.90
29577;DHT22;16509;53.862;10.672;2023-09-19T09:16:16;16.80;99.90
29577;DHT22;16509;53.862;10.672;2023-09-19T09:18:45;16.80;99.90
29577;DHT22;16509;53.862;10.672;2023-09-19T09:21:12;16.60;99.90
29577;DHT22;16509;53.862;10.672;2023-09-19T09:23:39;16.70;99.90
29577;DHT22;16509;53.862;10.672;2023-09-19T09:26:04;16.60;99.90
29577;DHT22;16509;53.862;10.672;2023-09-19T09:28:32;16.60;99.90
29577;DHT22;16509;53.862;10.672;2023-09-19T09:30:59;16.60;99.90
29577;DHT22;16509;53.862;10.672;2023-09-19T09:33:28;16.60;99.90
29577;DHT22;16509;53.862;10.672;2023-09-19T09:35:58;16.70;99.90
29577;DHT22;16509;53.862;10.672;2023-09-19T09:38:29;16.70;99.90
29577;DHT22;16509;53.862;10.672;2023-09-19T09:40:58;16.70;99.90
29577;DHT22;16509;53.862;10.672;2023-09-19T09:43:31;16.80;99.90
29577;DHT22;16509;53.862;10.672;2023-09-19T09:46:12;16.80;99.90
29577;DHT22;16509;53.862;10.672;2023-09-19T09:49:02;16.80;99.90
29577;DHT22;16509;53.862;10.672;2023-09-19T09:51:45;16.90;99.90
29577;DHT22;16509;53.862;10.672;2023-09-19T09:54:23;16.90;99.90
29577;DHT22;16509;53.862;10.672;2023-09-19T09:56:56;17.00;99.90
29577;DHT22;16509;53.862;10.672;2023-09-19T10:02:12;17.10;99.90
29577;DHT22;16509;53.862;10.672;2023-09-19T10:04:39;17.10;99.90
29577;DHT22;16509;53.862;10.672;2023-09-19T10:07:43;17.10;99.90
29577;DHT22;16509;53.862;10.672;2023-09-19T10:10:15;17.30;99.90
29577;DHT22;16509;53.862;10.672;2023-09-19T10:12:55;17.40;99.90
29577;DHT22;16509;53.862;10.672;2023-09-19T10:15:32;17.50;99.90
29577;DHT22;16509;53.862;10.672;2023-09-19T10:18:01;17.60;99.90
29577;DHT22;16509;53.862;10.672;2023-09-19T10:20:28;17.70;99.90
29577;DHT22;16509;53.862;10.672;2023-09-19T10:23:08;17.80;99.90
29577;DHT22;16509;53.862;10.672;2023-09-19T10:25:37;17.80;99.90
29577;DHT22;16509;53.862;10.672;2023-09-19T10:28:09;18.00;99.90
29577;DHT22;16509;53.862;10.672;2023-09-19T10:30:44;18.00;99.90
29577;DHT22;16509;53.862;10.672;2023-09-19T10:33:12;18.10;99.90
29577;DHT22;16509;53.862;10.672;2023-09-19T10:35:40;18.20;99.90
29577;DHT22;16509;53.862;10.672;2023-09-19T10:38:07;18.20;99.90
29577;DHT22;16509;53.862;10.672;2023-09-19T10:40:35;18.30;99.90
29577;DHT22;16509;53.862;10.672;2023-09-19T10:43:05;18.30;99.90
29577;DHT22;16509;53.862;10.672;2023-09-19T10:45:33;18.30;99.90
29577;DHT22;16509;53.862;10.672;2023-09-19T10:47:59;18.40;99.90
29577;DHT22;16509;53.862;10.672;2023-09-19T10:50:28;18.40;99.90
29577;DHT22;16509;53.862;10.672;2023-09-19T10:52:59;18.40;99.90
29577;DHT22;16509;53.862;10.672;2023-09-19T10:55:32;18.60;99.90
29577;DHT22;16509;53.862;10.672;2023-09-19T10:58:00;18.60;99.90
29577;DHT22;16509;53.862;10.672;2023-09-19T11:00:26;18.70;99.90
29577;DHT22;16509;53.862;10.672;2023-09-19T11:05:40;18.90;99.90
29577;DHT22;16509;53.862;10.672;2023-09-19T11:08:10;18.90;99.90
29577;DHT22;16509;53.862;10.672;2023-09-19T11:10:50;19.10;99.90
29577;DHT22;16509;53.862;10.672;2023-09-19T11:13:27;19.00;99.90
29577;DHT22;16509;53.862;10.672;2023-09-19T11:26:44;18.90;99.90
29577;DHT22;16509;53.862;10.672;2023-09-19T11:29:26;18.80;99.90
29577;DHT22;16509;53.862;10.672;2023-09-19T11:31:52;18.80;99.90
29577;DHT22;16509;53.862;10.672;2023-09-19T11:37:02;18.80;99.90
29577;DHT22;16509;53.862;10.672;2023-09-19T11:39:30;18.80;99.90
29577;DHT22;16509;53.862;10.672;2023-09-19T11:41:56;18.80;99.90
29577;DHT22;16509;53.862;10.672;2023-09-19T11:49:26;18.90;99.90
29577;DHT22;16509;53.862;10.672;2023-09-19T11:51:58;19.20;99.90
29577;DHT22;16509;53.862;10.672;2023-09-19T11:54:24;18.90;99.90
29577;DHT22;16509;53.862;10.672;2023-09-19T11:56:54;18.80;99.90
29577;DHT22;16509;53.862;10.672;2023-09-19T11:59:25;19.60;99.90
29577;DHT22;16509;53.862;10.672;2023-09-19T12:01:55;18.70;99.90
29577;DHT22;16509;53.862;10.672;2023-09-19T12:04:39;18.70;99.90
29577;DHT22;16509;53.862;10.672;2023-09-19T12:07:08;18.60;99.90
29577;DHT22;16509;53.862;10.672;2023-09-19T12:09:41;18.50;99.90
29577;DHT22;16509;53.862;10.672;2023-09-19T12:12:10;18.50;99.90
29577;DHT22;16509;53.862;10.672;2023-09-19T12:14:38;18.30;99.90
29577;DHT22;16509;53.862;10.672;2023-09-19T12:17:06;18.30;99.90
29577;DHT22;16509;53.862;10.672;2023-09-19T12:19:32;18.30;99.90
29577;DHT22;16509;53.862;10.672;2023-09-19T12:22:02;18.50;99.90
29577;DHT22;16509;53.862;10.672;2023-09-19T12:24:32;18.70;99.90
29577;DHT22;16509;53.862;10.672;2023-09-19T12:27:05;18.80;99.90
29577;DHT22;16509;53.862;10.672;2023-09-19T12:29:41;18.90;99.90
29577;DHT22;16509;53.862;10.672;2023-09-19T12:32:07;18.80;99.90
29577;DHT22;16509;53.862;10.672;2023-09-19T12:34:35;18.90;99.90
29577;DHT22;16509;53.862;10.672;2023-09-19T12:37:11;19.50;99.90
29577;DHT22;16509;53.862;10.672;2023-09-19T12:39:45;18.70;99.90
29577;DHT22;16509;53.862;10.672;2023-09-19T12:42:25;18.60;99.90
29577;DHT22;16509;53.862;10.672;2023-09-19T12:44:55;18.60;99.90
29577;DHT22;16509;53.862;10.672;2023-09-19T12:47:22;18.70;99.90
29577;DHT22;16509;53.862;10.672;2023-09-19T12:52:42;18.80;99.90
29577;DHT22;16509;53.862;10.672;2023-09-19T12:55:19;18.80;99.90
29577;DHT22;16509;53.862;10.672;2023-09-19T12:57:56;19.00;99.90
29577;DHT22;16509;53.862;10.672;2023-09-19T13:00:21;19.10;99.90
29577;DHT22;16509;53.862;10.672;2023-09-19T13:05:57;19.10;99.90
29577;DHT22;16509;53.862;10.672;2023-09-19T13:08:30;19.20;99.90
29577;DHT22;16509;53.862;10.672;2023-09-19T13:11:13;19.20;99.90
29577;DHT22;16509;53.862;10.672;2023-09-19T13:13:48;19.30;99.90
29577;DHT22;16509;53.862;10.672;2023-09-19T13:16:16;19.40;99.90
29577;DHT22;16509;53.862;10.672;2023-09-19T13:18:50;19.40;99.90
29577;DHT22;16509;53.862;10.672;2023-09-19T13:21:35;19.50;99.90
29577;DHT22;16509;53.862;10.672;2023-09-19T13:24:22;19.50;99.90
29577;DHT22;16509;53.862;10.672;2023-09-19T13:26:48;19.50;99.90
29577;DHT22;16509;53.862;10.672;2023-09-19T13:29:14;19.60;99.90
29577;DHT22;16509;53.862;10.672;2023-09-19T13:31:46;19.60;99.90
29577;DHT22;16509;53.862;10.672;2023-09-19T13:34:11;19.60;99.90
29577;DHT22;16509;53.862;10.672;2023-09-19T13:36:38;20.60;99.90
29577;DHT22;16509;53.862;10.672;2023-09-19T13:39:03;19.50;99.90
29577;DHT22;16509;53.862;10.672;2023-09-19T13:41:30;19.20;99.90
29577;DHT22;16509;53.862;10.672;2023-09-19T13:43:57;19.30;99.90
29577;DHT22;16509;53.862;10.672;2023-09-19T13:46:23;19.20;99.90
29577;DHT22;16509;53.862;10.672;2023-09-19T13:48:51;19.20;99.90
29577;DHT22;16509;53.862;10.672;2023-09-19T13:51:21;19.30;99.90
29577;DHT22;16509;53.862;10.672;2023-09-19T13:53:48;19.60;99.90
29577;DHT22;16509;53.862;10.672;2023-09-19T13:56:15;19.20;99.90
29577;DHT22;16509;53.862;10.672;2023-09-19T13:58:41;19.10;99.90
29577;DHT22;16509;53.862;10.672;2023-09-19T14:01:07;19.00;99.90
29577;DHT22;16509;53.862;10.672;2023-09-19T14:03:37;19.20;99.90
29577;DHT22;16509;53.862;10.672;2023-09-19T14:06:04;19.00;99.90
29577;DHT22;16509;53.862;10.672;2023-09-19T14:08:29;19.00;99.90
29577;DHT22;16509;53.862;10.672;2023-09-19T14:10:55;19.80;99.90
29577;DHT22;16509;53.862;10.672;2023-09-19T14:13:21;19.10;99.90
29577;DHT22;16509;53.862;10.672;2023-09-19T14:15:47;19.10;99.90
29577;DHT22;16509;53.862;10.672;2023-09-19T14:18:12;19.10;99.90
29577;DHT22;16509;53.862;10.672;2023-09-19T14:20:38;19.10;99.90
29577;DHT22;16509;53.862;10.672;2023-09-19T14:23:07;21.00;99.90
29577;DHT22;16509;53.862;10.672;2023-09-19T14:25:36;19.10;99.90
29577;DHT22;16509;53.862;10.672;2023-09-19T14:28:02;19.10;99.90
29577;DHT22;16509;53.862;10.672;2023-09-19T14:30:27;19.20;99.90
29577;DHT22;16509;53.862;10.672;2023-09-19T14:32:53;19.10;99.90
29577;DHT22;16509;53.862;10.672;2023-09-19T14:35:19;19.20;99.90
29577;DHT22;16509;53.862;10.672;2023-09-19T14:37:44;19.20;99.90
29577;DHT22;16509;53.862;10.672;2023-09-19T14:40:11;19.00;99.90
29577;DHT22;16509;53.862;10.672;2023-09-19T14:42:39;19.00;99.90
29577;DHT22;16509;53.862;10.672;2023-09-19T14:45:05;19.90;99.90
29577;DHT22;16509;53.862;10.672;2023-09-19T14:47:32;19.10;99.90
29577;DHT22;16509;53.862;10.672;2023-09-19T14:50:00;19.10;99.90
29577;DHT22;16509;53.862;10.672;2023-09-19T14:52:26;19.10;99.90
29577;DHT22;16509;53.862;10.672;2023-09-19T14:54:54;20.80;99.90
29577;DHT22;16509;53.862;10.672;2023-09-19T14:57:19;19.50;99.90
29577;DHT22;16509;53.862;10.672;2023-09-19T14:59:45;19.10;99.90
29577;DHT22;16509;53.862;10.672;2023-09-19T15:02:11;19.70;99.90
29577;DHT22;16509;53.862;10.672;2023-09-19T15:04:36;19.00;99.90
29577;DHT22;16509;53.862;10.672;2023-09-19T15:07:06;19.00;99.90
29577;DHT22;16509;53.862;10.672;2023-09-19T15:09:31;19.90;99.90
29577;DHT22;16509;53.862;10.672;2023-09-19T15:11:59;19.00;99.90
29577;DHT22;16509;53.862;10.672;2023-09-19T15:14:24;19.00;99.90
29577;DHT22;16509;53.862;10.672;2023-09-19T15:16:55;19.00;99.90
29577;DHT22;16509;53.862;10.672;2023-09-19T15:19:20;19.00;99.90
29577;DHT22;16509;53.862;10.672;2023-09-19T15:21:48;19.00;99.90
29577;DHT22;16509;53.862;10.672;2023-09-19T15:24:13;19.00;99.90
29577;DHT22;16509;53.862;10.672;2023-09-19T15:26:40;19.00;99.90
29577;DHT22;16509;53.862;10.672;2023-09-19T15:29:06;19.40;99.90
29577;DHT22;16509;53.862;10.672;2023-09-19T15:31:32;19.00;99.90
29577;DHT22;16509;53.862;10.672;2023-09-19T15:33:57;19.00;99.90
29577;DHT22;16509;53.862;10.672;2023-09-19T15:36:23;19.00;99.90
29577;DHT22;16509;53.862;10.672;2023-09-19T15:39:03;18.90;99.90
29577;DHT22;16509;53.862;10.672;2023-09-19T15:41:32;19.20;99.90
29577;DHT22;16509;53.862;10.672;2023-09-19T15:43:59;19.70;99.90
29577;DHT22;16509;53.862;10.672;2023-09-19T15:46:30;18.80;99.90
29577;DHT22;16509;53.862;10.672;2023-09-19T15:48:57;18.80;99.90
29577;DHT22;16509;53.862;10.672;2023-09-19T15:51:23;18.80;99.90
29577;DHT22;16509;53.862;10.672;2023-09-19T15:53:50;18.80;99.90
29577;DHT22;16509;53.862;10.672;2023-09-19T15:56:17;18.80;99.90
29577;DHT22;16509;53.862;10.672;2023-09-19T15:58:54;18.60;99.90
29577;DHT22;16509;53.862;10.672;2023-09-19T16:01:20;18.80;99.90